createdAt,value
2023-03-29T00:01:36.637Z,3.02
2023-03-29T00:06:38.195Z,3.15
2023-03-29T00:11:39.729Z,2.93
2023-03-29T00:16:41.355Z,3.08
2023-03-29T00:21:42.840Z,2.92
2023-03-29T00:26:44.343Z,2.86
2023-03-29T00:31:52.356Z,2.85
2023-03-29T00:36:57.880Z,3.03
2023-03-29T00:41:59.397Z,3.07
2023-03-29T00:47:00.959Z,3.10
2023-03-29T00:52:02.476Z,2.80
2023-03-29T00:57:05.152Z,2.93
2023-03-29T01:02:07.604Z,3.03
2023-03-29T01:07:35.885Z,2.99
2023-03-29T01:12:44.117Z,2.94
2023-03-29T01:17:50.406Z,2.91
2023-03-29T01:23:26.976Z,2.74
2023-03-29T01:28:34.183Z,2.78
2023-03-29T01:33:43.786Z,2.60
2023-03-29T01:38:56.971Z,2.59
2023-03-29T01:44:07.195Z,2.44
2023-03-29T01:49:22.413Z,2.57
2023-03-29T01:54:36.969Z,2.68
2023-03-29T01:59:43.338Z,2.64
2023-03-29T02:04:50.123Z,2.47
2023-03-29T02:09:53.754Z,2.31
2023-03-29T02:14:58.186Z,2.40
2023-03-29T02:20:14.704Z,2.35
2023-03-29T02:25:17.513Z,2.34
2023-03-29T02:30:21.039Z,2.47
2023-03-29T02:35:35.041Z,2.45
2023-03-29T02:40:39.161Z,2.49
2023-03-29T02:45:42.134Z,2.38
2023-03-29T02:50:49.818Z,2.41
2023-03-29T02:55:51.720Z,2.40
2023-03-29T03:00:53.578Z,2.23
2023-03-29T03:05:55.019Z,2.29
2023-03-29T03:10:56.614Z,2.34
2023-03-29T03:15:59.415Z,2.43
2023-03-29T03:21:04.603Z,2.26
2023-03-29T03:26:06.242Z,2.30
2023-03-29T03:31:16.126Z,2.29
2023-03-29T03:36:50.583Z,2.28
2023-03-29T03:41:52.062Z,2.13
2023-03-29T03:46:53.915Z,2.31
2023-03-29T03:51:55.993Z,2.36
2023-03-29T03:56:57.678Z,2.19
2023-03-29T04:02:12.788Z,2.29
2023-03-29T04:07:14.632Z,2.17
2023-03-29T04:12:35.809Z,2.02
2023-03-29T04:17:37.779Z,2.28
2023-03-29T04:22:53.848Z,2.12
2023-03-29T04:27:56.389Z,2.25
2023-03-29T04:33:13.201Z,2.33
2023-03-29T04:38:23.005Z,2.20
2023-03-29T04:43:25.873Z,2.10
2023-03-29T04:48:34.048Z,1.94
2023-03-29T04:53:36.743Z,1.98
2023-03-29T04:58:38.376Z,1.78
2023-03-29T05:03:40.213Z,2.07
2023-03-29T05:08:55.298Z,2.01
2023-03-29T05:14:03.297Z,2.02
2023-03-29T05:19:11.627Z,2.11
2023-03-29T05:24:17.175Z,2.14
2023-03-29T05:29:33.065Z,2.08
2023-03-29T05:34:53.989Z,2.15
2023-03-29T05:40:08.369Z,2.15
2023-03-29T05:45:24.603Z,2.42
2023-03-29T05:50:26.690Z,2.41
2023-03-29T05:55:30.122Z,2.43
2023-03-29T06:00:37.006Z,2.51
2023-03-29T06:06:00.522Z,2.63
2023-03-29T06:11:05.775Z,2.67
2023-03-29T06:16:37.598Z,2.75
2023-03-29T06:21:39.338Z,2.70
2023-03-29T06:26:42.063Z,2.81
2023-03-29T06:31:43.866Z,2.89
2023-03-29T06:37:01.485Z,2.97
2023-03-29T06:42:13.007Z,3.01
2023-03-29T06:47:33.647Z,3.07
2023-03-29T06:52:35.241Z,3.12
2023-03-29T06:57:36.818Z,3.20
2023-03-29T07:02:39.913Z,3.25
2023-03-29T07:08:11.804Z,3.35
2023-03-29T07:13:30.495Z,3.49
2023-03-29T07:18:34.135Z,3.54
2023-03-29T07:23:36.051Z,3.55
2023-03-29T07:28:39.330Z,3.60
2023-03-29T07:33:41.608Z,3.63
2023-03-29T07:38:44.143Z,3.68
2023-03-29T07:43:52.049Z,3.76
2023-03-29T07:48:58.204Z,3.88
2023-03-29T07:54:00.007Z,3.94
2023-03-29T07:59:16.857Z,3.99
2023-03-29T08:04:23.258Z,4.01
2023-03-29T08:09:45.003Z,4.07
2023-03-29T08:14:47.195Z,4.11
2023-03-29T08:19:55.417Z,4.23
2023-03-29T08:24:58.698Z,4.24
2023-03-29T08:30:08.165Z,4.35
2023-03-29T08:35:13.529Z,4.48
2023-03-29T08:40:29.967Z,4.67
2023-03-29T08:45:53.420Z,4.81
2023-03-29T08:51:00.225Z,4.74
2023-03-29T08:56:12.772Z,5.06
2023-03-29T09:01:37.536Z,5.16
2023-03-29T09:06:40.050Z,5.08
2023-03-29T09:12:03.406Z,5.47
2023-03-29T09:17:23.068Z,5.65
2023-03-29T09:22:41.013Z,5.60
2023-03-29T09:28:00.095Z,5.96
2023-03-29T09:33:37.245Z,6.27
2023-03-29T09:38:49.026Z,6.17
2023-03-29T09:43:52.191Z,6.42
2023-03-29T09:48:58.581Z,6.31
2023-03-29T09:54:01.138Z,6.70
2023-03-29T09:59:32.132Z,6.79
2023-03-29T10:04:34.261Z,7.11
2023-03-29T10:09:35.981Z,7.22
2023-03-29T10:14:54.252Z,7.15
2023-03-29T10:20:04.043Z,7.41
2023-03-29T10:25:13.198Z,7.42
2023-03-29T10:30:22.529Z,7.31
2023-03-29T10:35:40.032Z,7.45
2023-03-29T10:41:17.447Z,7.49
2023-03-29T10:46:28.311Z,7.52
2023-03-29T10:51:33.291Z,7.60
2023-03-29T10:56:50.784Z,7.66
2023-03-29T11:01:53.649Z,7.73
2023-03-29T11:07:20.052Z,7.76
2023-03-29T11:12:50.220Z,8.00
2023-03-29T11:17:58.228Z,8.23
2023-03-29T11:23:22.455Z,8.53
2023-03-29T11:28:54.221Z,8.52
2023-03-29T11:34:34.826Z,8.55
2023-03-29T11:40:10.824Z,8.64
2023-03-29T11:45:17.581Z,8.85
2023-03-29T11:50:29.180Z,8.93
2023-03-29T11:55:37.695Z,9.06
2023-03-29T12:00:46.692Z,9.21
2023-03-29T12:06:22.352Z,9.28
2023-03-29T12:11:36.244Z,9.43
2023-03-29T12:17:15.936Z,9.42
2023-03-29T12:22:22.332Z,9.53
2023-03-29T12:27:39.511Z,9.68
2023-03-29T12:33:21.590Z,9.75
2023-03-29T12:38:31.142Z,9.76
2023-03-29T12:43:51.562Z,10.05
2023-03-29T12:49:31.803Z,10.06
2023-03-29T12:54:33.785Z,10.12
2023-03-29T12:59:47.727Z,10.15
2023-03-29T13:04:53.704Z,10.33
2023-03-29T13:09:58.074Z,10.06
2023-03-29T13:15:02.807Z,10.45
2023-03-29T13:20:37.248Z,10.34
2023-03-29T13:26:00.624Z,10.10
2023-03-29T13:31:12.302Z,10.49
2023-03-29T13:36:24.946Z,10.62
2023-03-29T13:41:28.912Z,10.67
2023-03-29T13:46:41.897Z,10.54
2023-03-29T13:52:09.224Z,11.05
2023-03-29T13:57:24.754Z,11.15
2023-03-29T14:02:43.598Z,10.53
2023-03-29T14:07:50.034Z,10.64
2023-03-29T14:12:53.597Z,10.66
2023-03-29T14:17:58.993Z,10.58
2023-03-29T14:23:09.945Z,11.11
2023-03-29T14:28:26.253Z,10.62
2023-03-29T14:33:37.923Z,10.50
2023-03-29T14:38:39.921Z,10.66
2023-03-29T14:43:41.523Z,10.92
2023-03-29T14:48:43.423Z,10.82
2023-03-29T14:53:45.999Z,10.78
2023-03-29T14:58:47.647Z,11.07
2023-03-29T15:03:56.895Z,11.07
2023-03-29T15:09:06.236Z,11.22
2023-03-29T15:14:15.517Z,11.07
2023-03-29T15:19:19.662Z,11.02
2023-03-29T15:24:30.639Z,11.15
2023-03-29T15:29:42.069Z,11.18
2023-03-29T15:34:43.588Z,11.13
2023-03-29T15:39:44.989Z,11.28
2023-03-29T15:44:46.631Z,11.10
2023-03-29T15:49:48.119Z,11.06
2023-03-29T15:54:49.508Z,11.00
2023-03-29T15:59:51.004Z,11.28
2023-03-29T16:04:53.406Z,11.23
2023-03-29T16:09:54.893Z,11.29
2023-03-29T16:14:56.282Z,11.22
2023-03-29T16:19:57.807Z,11.09
2023-03-29T16:24:59.441Z,11.02
2023-03-29T16:30:01.143Z,11.17
2023-03-29T16:35:04.531Z,11.18
2023-03-29T16:40:07.753Z,11.33
2023-03-29T16:45:13.904Z,11.13
2023-03-29T16:50:18.886Z,11.00
2023-03-29T16:55:20.493Z,11.09
2023-03-29T17:00:21.928Z,11.24
2023-03-29T17:05:23.407Z,11.19
2023-03-29T17:10:25.439Z,11.35
2023-03-29T17:15:26.974Z,11.28
2023-03-29T17:20:28.772Z,11.17
2023-03-29T17:25:30.251Z,10.99
2023-03-29T17:30:33.191Z,10.65
2023-03-29T17:35:35.078Z,10.81
2023-03-29T17:40:36.610Z,10.82
2023-03-29T17:45:38.167Z,10.92
2023-03-29T17:50:39.546Z,10.79
2023-03-29T17:55:41.061Z,10.74
2023-03-29T18:00:42.559Z,10.60
2023-03-29T18:05:44.042Z,10.47
2023-03-29T18:10:45.411Z,10.55
2023-03-29T18:15:47.507Z,10.43
2023-03-29T18:20:48.993Z,10.38
2023-03-29T18:25:50.662Z,10.44
2023-03-29T18:30:52.387Z,10.42
2023-03-29T18:35:53.892Z,10.22
2023-03-29T18:40:55.456Z,10.15
2023-03-29T18:45:57.458Z,9.79
2023-03-29T18:50:58.961Z,9.88
2023-03-29T18:56:01.332Z,10.01
2023-03-29T19:01:05.362Z,9.91
2023-03-29T19:06:07.910Z,9.86
2023-03-29T19:11:11.480Z,9.86
2023-03-29T19:16:12.989Z,9.67
2023-03-29T19:21:14.504Z,9.77
2023-03-29T19:26:15.940Z,9.62
2023-03-29T19:31:17.475Z,9.72
2023-03-29T19:36:18.959Z,9.67
2023-03-29T19:41:20.836Z,9.55
2023-03-29T19:46:22.905Z,8.99
2023-03-29T19:51:26.769Z,9.36
2023-03-29T19:56:28.260Z,9.16
2023-03-29T20:01:32.770Z,8.86
2023-03-29T20:06:34.784Z,9.20
2023-03-29T20:11:36.424Z,9.02
2023-03-29T20:16:44.813Z,9.10
2023-03-29T20:21:46.507Z,9.07
2023-03-29T20:26:48.328Z,9.02
2023-03-29T20:31:49.826Z,9.10
2023-03-29T20:36:55.159Z,8.98
2023-03-29T20:41:57.423Z,8.86
2023-03-29T20:47:05.063Z,8.85
2023-03-29T20:52:10.623Z,8.51
2023-03-29T20:57:19.047Z,8.56
2023-03-29T21:02:22.784Z,8.37
2023-03-29T21:07:24.407Z,8.67
2023-03-29T21:12:25.900Z,8.45
2023-03-29T21:17:27.911Z,8.53
2023-03-29T21:22:29.543Z,8.72
2023-03-29T21:27:31.066Z,8.59
2023-03-29T21:32:32.632Z,8.62
2023-03-29T21:37:34.032Z,8.56
2023-03-29T21:42:35.490Z,8.55
2023-03-29T21:47:37.000Z,8.41
2023-03-29T21:52:38.581Z,8.16
2023-03-29T21:57:40.665Z,8.17
2023-03-29T22:02:42.625Z,8.09
2023-03-29T22:07:44.195Z,8.10
2023-03-29T22:12:45.716Z,7.85
2023-03-29T22:17:47.875Z,8.17
2023-03-29T22:22:50.711Z,8.07
2023-03-29T22:27:52.247Z,7.95
2023-03-29T22:32:53.741Z,7.75
2023-03-29T22:37:55.273Z,7.63
2023-03-29T22:42:57.067Z,7.80
2023-03-29T22:47:58.541Z,7.86
2023-03-29T22:53:00.018Z,7.77
2023-03-29T22:58:01.517Z,7.71
2023-03-29T23:03:03.096Z,7.78
2023-03-29T23:08:04.714Z,7.74
2023-03-29T23:13:08.808Z,7.72
2023-03-29T23:18:13.084Z,7.72
2023-03-29T23:23:16.535Z,7.78
2023-03-29T23:28:21.542Z,7.76
2023-03-29T23:33:25.608Z,7.71
2023-03-29T23:38:27.761Z,7.66
2023-03-29T23:43:32.673Z,7.65
2023-03-29T23:48:34.729Z,7.63
2023-03-29T23:53:36.643Z,7.59
2023-03-29T23:58:38.140Z,7.68
